Hernani, Spain
Current Conditions -  °F | °C
As of 8:00 AM on Sunday 23 Nov 2014 (Local Time) from LESO Reporting Station
Clear Clear  
Wind Chill: 70°   Ceiling: Unl
Heat Index: 70°   Visibility: 6mi
Dew Point: 45°   Wind: 5mph
Humidity: 40%   Direction: 180°S
Pressure: 29.83"   Gusts: NA
Location:  43.27°N, 1.98°W
Report Text: LESO 230700Z 18004KT 140V280 CAVOK 21/07 Q1010
Loading
Personal Weather Stations






























Interactive Weather Map New forecast layout! Learn more

10-Day Weather Forecast

Advertisements
Track Severe Weather on mobile